DucheSS Of Scandinavia — OUZI2 — position and weather

sailwx.info

Track history (hours):
 
Tides and Currents Weather Stations Pressure Air Temp Water Temp Dewpoint Dewpoint Depression Visibility Wind Speed Wind Dir Waves Ship Positions

DucheSS Of Scandinavia

Operator: DFDS A/S

Last reported at 2017-Apr-27 18:31 UTC. Time now 2017-Apr-27 18:49 UTC.
Position N 59°05' E 010°15'.

Length 134 m; draft 5.4 m.

Type: Passenger vessel. MMSI: 219002929.

Date/timePositionNaut miles runAvg speedWind from/ knotsBaromVisibWave heightAir tempDewpointWater temp
2017-Apr-27 18:31N 59°05' E 010°15'713.2
2017-Apr-27 18:01N 59°01' E 010°25'816.2
2017-Apr-27 17:30N 59°01' E 010°41'815.7
2017-Apr-27 17:01N 59°00' E 010°56'815.9
2017-Apr-27 16:31N 58°56' E 011°09'1 1.7
2017-Apr-27 16:00N 58°56' E 011°10'3 6.5
2017-Apr-27 15:30N 58°57' E 011°04'815.8
2017-Apr-27 15:00N 59°01' E 010°51'1615.8
2017-Apr-27 14:00N 59°01' E 010°20'713.0
2017-Apr-27 13:30N 59°06' E 010°14'1 2.2
2017-Apr-27 13:01N 59°08' E 010°14'0 0.1
2017-Apr-27 12:31N 59°08' E 010°14'611.2
2017-Apr-27 12:00N 59°02' E 010°16'713.9
2017-Apr-27 11:30N 59°01' E 010°29'714.7
2017-Apr-27 11:01N 59°01' E 010°43'714.7
2017-Apr-27 10:31N 59°00' E 010°57'714.9
2017-Apr-27 10:01N 58°56' E 011°09'1 1.3
2017-Apr-27 09:30N 58°56' E 011°10'0 0.0
2017-Apr-27 09:00N 58°56' E 011°10'511.0
2017-Apr-27 08:31N 58°59' E 011°01'815.9
2017-Apr-27 08:00N 59°02' E 010°47'816.1
2017-Apr-27 07:30N 59°00' E 010°31'815.9
2017-Apr-27 07:00N 59°02' E 010°16'611.4
2017-Apr-27 06:30N 59°07' E 010°14'0 0.2
2017-Apr-27 06:01N 59°08' E 010°14'1 2.9
2017-Apr-27 05:31N 59°06' E 010°14'0 0.0
2017-Apr-27 04:55N 59°06' E 010°14'0 0.0
2017-Apr-27 04:29N 59°06' E 010°14'0 0.0
2017-Apr-27 03:59N 59°06' E 010°14'0 0.0
2017-Apr-27 03:29N 59°06' E 010°14'0 0.0
2017-Apr-27 03:00N 59°06' E 010°14'0 0.0
2017-Apr-27 02:30N 59°06' E 010°14'0 0.0
2017-Apr-27 02:00N 59°06' E 010°14'0 0.0
2017-Apr-27 01:28N 59°06' E 010°14'0 0.0
2017-Apr-27 00:58N 59°06' E 010°14'0 0.0
2017-Apr-27 00:28N 59°06' E 010°14'0 0.0
2017-Apr-26 23:59N 59°06' E 010°14'0 0.0
2017-Apr-26 23:29N 59°06' E 010°14'0 0.0
2017-Apr-26 22:59N 59°06' E 010°14'0 0.0
2017-Apr-26 22:30N 59°06' E 010°14'0 0.0
2017-Apr-26 22:00N 59°06' E 010°14'0 0.0
2017-Apr-26 21:30N 59°06' E 010°14'0 0.0
2017-Apr-26 20:58N 59°06' E 010°14'0 0.0
2017-Apr-26 20:25N 59°06' E 010°14'0 0.0
2017-Apr-26 19:58N 59°06' E 010°14'1 2.7
2017-Apr-26 19:30N 59°07' E 010°14'0 0.3
2017-Apr-26 19:01N 59°08' E 010°14'611.6
2017-Apr-26 18:30N 59°02' E 010°16'816.2
2017-Apr-26 18:01N 59°01' E 010°31'816.6
2017-Apr-26 17:31N 59°02' E 010°47'816.0
2017-Apr-26 17:01N 58°59' E 011°02'510.6
2017-Apr-26 16:31N 58°56' E 011°10'0 0.0
2017-Apr-26 16:01N 58°56' E 011°10'2 4.5
2017-Apr-26 15:30N 58°56' E 011°06'816.2
2017-Apr-26 15:01N 59°01' E 010°53'816.1
2017-Apr-26 14:31N 59°01' E 010°37'1313.2
2017-Apr-26 13:31N 59°06' E 010°14'1 2.6
2017-Apr-26 13:00N 59°08' E 010°14'0 0.1
2017-Apr-26 12:30N 59°08' E 010°14'510.8
2017-Apr-26 12:01N 59°02' E 010°16'713.6
2017-Apr-26 11:30N 59°00' E 010°28'714.6
2017-Apr-26 11:00N 59°01' E 010°42'714.6
2017-Apr-26 10:31N 59°00' E 010°56'814.9
2017-Apr-26 10:00N 58°56' E 011°08'1 2.1
2017-Apr-26 09:31N 58°56' E 011°10'0 0.0
2017-Apr-26 09:01N 58°56' E 011°10'511.0
2017-Apr-26 08:31N 58°59' E 011°01'815.8
2017-Apr-26 08:01N 59°02' E 010°47'815.8
2017-Apr-26 07:31N 59°01' E 010°32'815.8
2017-Apr-26 07:01N 59°02' E 010°16'612.1
2017-Apr-26 06:31N 59°07' E 010°14'0 0.3
2017-Apr-26 06:01N 59°08' E 010°14'1 1.2
2017-Apr-26 05:30N 59°07' E 010°14'1 1.6
2017-Apr-26 04:59N 59°06' E 010°14'0 0.0
2017-Apr-26 04:29N 59°06' E 010°14'0 0.0
2017-Apr-26 04:00N 59°06' E 010°14'0 0.0
2017-Apr-26 03:30N 59°06' E 010°14'0 0.0
2017-Apr-26 03:00N 59°06' E 010°14'0 0.0
2017-Apr-26 02:28N 59°06' E 010°14'0 0.0
2017-Apr-26 01:58N 59°06' E 010°14'0 0.0
2017-Apr-26 01:28N 59°06' E 010°14'0 0.0
2017-Apr-26 00:56N 59°06' E 010°14'0 0.0
2017-Apr-26 00:29N 59°06' E 010°14'0 0.0
2017-Apr-25 23:56N 59°06' E 010°14'0 0.0
2017-Apr-25 23:30N 59°06' E 010°14'0 0.0
2017-Apr-25 23:00N 59°06' E 010°14'0 0.0
2017-Apr-25 22:30N 59°06' E 010°14'0 0.0
2017-Apr-25 21:58N 59°06' E 010°14'0 0.0
2017-Apr-25 21:28N 59°06' E 010°14'0 0.0
2017-Apr-25 20:58N 59°06' E 010°14'0 0.0
2017-Apr-25 20:30N 59°06' E 010°14'0 0.0
2017-Apr-25 20:01N 59°06' E 010°14'1 1.3
2017-Apr-25 19:30N 59°07' E 010°14'1 1.6
2017-Apr-25 19:00N 59°08' E 010°14'3 5.6
2017-Apr-25 18:31N 59°05' E 010°15'713.6
2017-Apr-25 18:01N 59°01' E 010°25'816.5
2017-Apr-25 17:31N 59°01' E 010°41'815.8
2017-Apr-25 17:01N 59°00' E 010°57'815.4
2017-Apr-25 16:31N 58°56' E 011°09'1 1.5
2017-Apr-25 16:00N 58°56' E 011°10'4 7.2
2017-Apr-25 15:31N 58°57' E 011°03'815.9
2017-Apr-25 15:01N 59°01' E 010°50'1615.6
2017-Apr-25 14:01N 59°01' E 010°20'713.1
2017-Apr-25 13:30N 59°07' E 010°14'1 1.7
2017-Apr-25 13:00N 59°08' E 010°14'0 0.1
2017-Apr-25 12:30N 59°08' E 010°14'510.4
2017-Apr-25 12:01N 59°02' E 010°15'713.2
2017-Apr-25 11:30N 59°01' E 010°28'815.7
2017-Apr-25 11:01N 59°01' E 010°43'815.5
2017-Apr-25 10:31N 58°60' E 010°58'714.4
2017-Apr-25 10:00N 58°56' E 011°09'1 1.0
2017-Apr-25 09:30N 58°56' E 011°10'0 0.0
2017-Apr-25 09:01N 58°56' E 011°10'611.5
2017-Apr-25 08:31N 58°59' E 011°01'816.1
2017-Apr-25 08:00N 59°02' E 010°46'815.5
2017-Apr-25 07:31N 59°00' E 010°31'815.2
2017-Apr-25 07:01N 59°02' E 010°16'611.9
2017-Apr-25 06:30N 59°07' E 010°14'0 0.4
2017-Apr-25 06:01N 59°08' E 010°14'1 2.8
2017-Apr-25 05:31N 59°06' E 010°14'0 0.0
2017-Apr-25 04:58N 59°06' E 010°14'0 0.0
2017-Apr-25 04:28N 59°06' E 010°14'0 0.0
2017-Apr-25 03:52N 59°06' E 010°14'0 0.0
2017-Apr-25 03:29N 59°06' E 010°14'0 0.0
2017-Apr-25 02:59N 59°06' E 010°14'0 0.0
2017-Apr-25 02:29N 59°06' E 010°14'0 0.0
2017-Apr-25 02:00N 59°06' E 010°14'0 0.0
2017-Apr-25 01:30N 59°06' E 010°14'0 0.0
2017-Apr-25 01:00N 59°06' E 010°14'0 0.0
2017-Apr-25 00:28N 59°06' E 010°14'0 0.0
2017-Apr-24 23:58N 59°06' E 010°14'0 0.0
2017-Apr-24 23:28N 59°06' E 010°14'0 0.0
2017-Apr-24 22:59N 59°06' E 010°14'0 0.0
2017-Apr-24 22:29N 59°06' E 010°14'0 0.0
2017-Apr-24 21:59N 59°06' E 010°14'0 0.0
2017-Apr-24 21:30N 59°06' E 010°14'0 0.0
2017-Apr-24 21:00N 59°06' E 010°14'0 0.0
2017-Apr-24 20:30N 59°06' E 010°14'0 0.0
2017-Apr-24 20:01N 59°06' E 010°14'0 0.0
2017-Apr-24 19:31N 59°06' E 010°14'1 2.9
2017-Apr-24 19:01N 59°08' E 010°14'3 6.7
2017-Apr-24 18:31N 59°04' E 010°15'713.6
2017-Apr-24 18:01N 59°01' E 010°26'815.8
2017-Apr-24 17:31N 59°01' E 010°42'815.8
2017-Apr-24 17:01N 59°00' E 010°57'714.9
2017-Apr-24 16:31N 58°56' E 011°09'1 1.7
2017-Apr-24 16:01N 58°56' E 011°10'3 7.0
2017-Apr-24 15:31N 58°57' E 011°04'816.4
2017-Apr-24 15:01N 59°01' E 010°50'815.6
2017-Apr-24 14:31N 59°00' E 010°35'1312.6
2017-Apr-24 13:30N 59°07' E 010°14'1 1.7
2017-Apr-24 13:00N 59°08' E 010°14'0 0.3
2017-Apr-24 12:30N 59°07' E 010°14'611.3
2017-Apr-24 12:01N 59°02' E 010°16'714.1
2017-Apr-24 11:31N 59°00' E 010°29'714.6
2017-Apr-24 11:01N 59°01' E 010°43'714.3
2017-Apr-24 10:31N 59°00' E 010°57'714.9
2017-Apr-24 10:01N 58°56' E 011°09'1 1.5
2017-Apr-24 09:30N 58°56' E 011°10'0 0.0
2017-Apr-24 09:01N 58°56' E 011°10'5 9.8
2017-Apr-24 08:31N 58°58' E 011°02'815.6
2017-Apr-24 08:01N 59°02' E 010°48'816.3
2017-Apr-24 07:31N 59°00' E 010°33'816.7
2017-Apr-24 07:01N 59°02' E 010°16'611.9
2017-Apr-24 06:30N 59°07' E 010°14'0 0.3
2017-Apr-24 06:01N 59°08' E 010°14'1 2.9
2017-Apr-24 05:30N 59°06' E 010°14'0 0.0
2017-Apr-24 04:58N 59°06' E 010°14'0 0.0
2017-Apr-24 04:28N 59°06' E 010°14'0 0.0
2017-Apr-24 03:59N 59°06' E 010°14'0 0.0
2017-Apr-24 03:29N 59°06' E 010°14'0 0.0
2017-Apr-24 02:59N 59°06' E 010°14'0 0.0
2017-Apr-24 02:30N 59°06' E 010°14'0 0.0
2017-Apr-24 02:00N 59°06' E 010°14'0 0.0
2017-Apr-24 01:30N 59°06' E 010°14'0 0.0
2017-Apr-24 00:58N 59°06' E 010°14'0 0.0
2017-Apr-24 00:28N 59°06' E 010°14'0 0.0
2017-Apr-23 23:58N 59°06' E 010°14'0 0.0
2017-Apr-23 23:29N 59°06' E 010°14'0 0.0
2017-Apr-23 22:59N 59°06' E 010°14'0 0.0
2017-Apr-23 22:29N 59°06' E 010°14'0 0.0
2017-Apr-23 22:00N 59°06' E 010°14'0 0.0
2017-Apr-23 21:30N 59°06' E 010°14'0 0.0
2017-Apr-23 21:00N 59°06' E 010°14'0 0.0
2017-Apr-23 20:31N 59°06' E 010°14'0 0.0
2017-Apr-23 20:01N 59°06' E 010°14'0 0.5
2017-Apr-23 19:30N 59°06' E 010°14'1 2.4
2017-Apr-23 19:01N 59°08' E 010°14'4 8.7
2017-Apr-23 18:30N 59°03' E 010°15'714.6
2017-Apr-23 18:01N 59°01' E 010°28'816.1
2017-Apr-23 17:31N 59°02' E 010°44'815.7
2017-Apr-23 17:01N 58°60' E 010°59'713.8
2017-Apr-23 16:30N 58°56' E 011°10'0 0.3
2017-Apr-23 16:01N 58°56' E 011°10'3 6.8
2017-Apr-23 15:30N 58°57' E 011°04'815.6
2017-Apr-23 15:00N 59°01' E 010°51'1616.0
2017-Apr-23 14:00N 59°01' E 010°20'612.6
2017-Apr-23 13:31N 59°06' E 010°14'1 2.2
2017-Apr-23 13:01N 59°08' E 010°14'0 0.0
2017-Apr-23 12:31N 59°08' E 010°14'5 9.2
2017-Apr-23 12:01N 59°03' E 010°15'714.8
2017-Apr-23 11:31N 59°01' E 010°29'816.7
2017-Apr-23 11:01N 59°02' E 010°45'815.8
2017-Apr-23 10:31N 58°59' E 010°60'612.7
2017-Apr-23 10:01N 58°56' E 011°10'0 0.0
2017-Apr-23 09:31N 58°56' E 011°10'0 0.0
2017-Apr-23 09:01N 58°56' E 011°10'510.0
2017-Apr-23 08:30N 58°58' E 011°02'816.4
2017-Apr-23 08:00N 59°02' E 010°47'816.1
2017-Apr-23 07:30N 59°00' E 010°32'815.8
2017-Apr-23 07:01N 59°02' E 010°16'611.9
2017-Apr-23 06:30N 59°07' E 010°14'0 0.3
2017-Apr-23 06:01N 59°08' E 010°14'1 2.9
2017-Apr-23 05:30N 59°06' E 010°14'0 0.0
2017-Apr-23 04:59N 59°06' E 010°14'0 0.0
2017-Apr-23 04:30N 59°06' E 010°14'0 0.0
2017-Apr-23 04:00N 59°06' E 010°14'0 0.0
2017-Apr-23 03:30N 59°06' E 010°14'0 0.0
2017-Apr-23 02:58N 59°06' E 010°14'0 0.0
2017-Apr-23 02:25N 59°06' E 010°14'0 0.0
2017-Apr-23 01:58N 59°06' E 010°14'0 0.0
2017-Apr-23 01:29N 59°06' E 010°14'0 0.0
2017-Apr-23 00:59N 59°06' E 010°14'0 0.0
2017-Apr-23 00:29N 59°06' E 010°14'0 0.0
2017-Apr-23 00:00N 59°06' E 010°14'0 0.0
2017-Apr-22 23:30N 59°06' E 010°14'0 0.0
2017-Apr-22 23:00N 59°06' E 010°14'0 0.0
2017-Apr-22 22:25N 59°06' E 010°14'0 0.0
2017-Apr-22 21:58N 59°06' E 010°14'0 0.0
2017-Apr-22 21:25N 59°06' E 010°14'0 0.0
2017-Apr-22 20:59N 59°06' E 010°14'0 0.0
2017-Apr-22 20:29N 59°06' E 010°14'0 0.0
2017-Apr-22 19:59N 59°06' E 010°14'0 0.0
2017-Apr-22 19:30N 59°06' E 010°14'1 2.9
2017-Apr-22 19:01N 59°08' E 010°14'3 5.5
2017-Apr-22 18:31N 59°05' E 010°15'713.0
2017-Apr-22 18:01N 59°01' E 010°25'816.3
2017-Apr-22 17:31N 59°01' E 010°41'815.8
2017-Apr-22 17:01N 59°00' E 010°56'815.3
2017-Apr-22 16:30N 58°56' E 011°08'1 2.4
2017-Apr-22 16:01N 58°56' E 011°10'4 7.2
2017-Apr-22 15:30N 58°57' E 011°04'816.3
2017-Apr-22 15:01N 59°01' E 010°50'816.1
2017-Apr-22 14:30N 59°01' E 010°34'1212.3
2017-Apr-22 13:30N 59°07' E 010°14'1 1.2
2017-Apr-22 13:01N 59°08' E 010°14'0 0.0
2017-Apr-22 12:31N 59°08' E 010°14'4 8.1
2017-Apr-22 12:01N 59°04' E 010°15'612.6
2017-Apr-22 11:31N 59°01' E 010°26'816.3
2017-Apr-22 11:01N 59°02' E 010°42'815.2
2017-Apr-22 10:31N 59°00' E 010°56'815.1
2017-Apr-22 10:00N 58°56' E 011°08'1 2.3
2017-Apr-22 09:30N 58°56' E 011°10'0 0.1
2017-Apr-22 09:00N 58°56' E 011°10'713.9
2017-Apr-22 08:30N 58°60' E 010°59'815.2
2017-Apr-22 08:00N 59°01' E 010°44'815.5
2017-Apr-22 07:30N 59°00' E 010°29'815.1
2017-Apr-22 07:00N 59°03' E 010°15'510.1
2017-Apr-22 06:30N 59°08' E 010°14'0 0.0
2017-Apr-22 06:01N 59°08' E 010°14'1 2.9
2017-Apr-22 05:31N 59°06' E 010°14'0 0.0
2017-Apr-22 04:58N 59°06' E 010°14'0 0.0
2017-Apr-22 04:28N 59°06' E 010°14'0 0.0
2017-Apr-22 03:59N 59°06' E 010°14'0 0.0
2017-Apr-22 03:26N 59°06' E 010°14'0 0.0
2017-Apr-22 02:59N 59°06' E 010°14'0 0.0
2017-Apr-22 02:30N 59°06' E 010°14'0 0.0
2017-Apr-22 02:00N 59°06' E 010°14'0 0.0
2017-Apr-22 01:30N 59°06' E 010°14'0 0.0
2017-Apr-22 00:55N 59°06' E 010°14'0 0.0
2017-Apr-22 00:28N 59°06' E 010°14'0 0.0
2017-Apr-21 23:55N 59°06' E 010°14'0 0.0
2017-Apr-21 23:29N 59°06' E 010°14'0 0.0
2017-Apr-21 22:59N 59°06' E 010°14'0 0.0
2017-Apr-21 22:29N 59°06' E 010°14'0 0.0
2017-Apr-21 22:00N 59°06' E 010°14'0 0.0
2017-Apr-21 21:30N 59°06' E 010°14'0 0.0
2017-Apr-21 21:00N 59°06' E 010°14'0 0.0
2017-Apr-21 20:31N 59°06' E 010°14'0 0.0
2017-Apr-21 20:00N 59°06' E 010°14'1 1.3
2017-Apr-21 19:30N 59°07' E 010°14'1 1.6
2017-Apr-21 19:01N 59°08' E 010°14'3 6.7
2017-Apr-21 18:31N 59°04' E 010°15'713.2
2017-Apr-21 18:00N 59°01' E 010°26'815.6
2017-Apr-21 17:31N 59°01' E 010°41'816.4
2017-Apr-21 17:01N 59°00' E 010°57'815.4
2017-Apr-21 16:31N 58°56' E 011°09'1 1.3
2017-Apr-21 16:00N 58°56' E 011°10'4 7.7
2017-Apr-21 15:31N 58°57' E 011°03'714.2
2017-Apr-21 15:01N 59°01' E 010°51'714.4
2017-Apr-21 14:31N 59°01' E 010°37'1313.0
2017-Apr-21 13:31N 59°06' E 010°14'2 3.3
2017-Apr-21 13:01N 59°08' E 010°14'0 0.0
2017-Apr-21 12:31N 59°08' E 010°14'4 9.0
2017-Apr-21 12:01N 59°03' E 010°15'713.0
2017-Apr-21 11:31N 59°00' E 010°27'815.3
2017-Apr-21 11:01N 59°02' E 010°41'815.1
2017-Apr-21 10:31N 59°00' E 010°55'815.5
2017-Apr-21 10:01N 58°56' E 011°08'1 2.4
2017-Apr-21 09:30N 58°56' E 011°10'0 0.0
2017-Apr-21 09:01N 58°56' E 011°10'510.8
2017-Apr-21 08:31N 58°59' E 011°01'815.8
2017-Apr-21 08:00N 59°02' E 010°47'816.5
2017-Apr-21 07:31N 58°60' E 010°31'816.3
2017-Apr-21 07:01N 59°02' E 010°16'611.6
2017-Apr-21 06:31N 59°08' E 010°14'0 0.2
2017-Apr-21 06:00N 59°08' E 010°14'1 2.9
2017-Apr-21 05:30N 59°06' E 010°14'0 0.0
2017-Apr-21 04:59N 59°06' E 010°14'0 0.0
2017-Apr-21 04:30N 59°06' E 010°14'0 0.0
2017-Apr-21 04:00N 59°06' E 010°14'0 0.0
2017-Apr-21 03:30N 59°06' E 010°14'0 0.0
2017-Apr-21 02:58N 59°06' E 010°14'0 0.0
2017-Apr-21 02:28N 59°06' E 010°14'0 0.0
2017-Apr-21 01:58N 59°06' E 010°14'0 0.0
2017-Apr-21 01:29N 59°06' E 010°14'0 0.0
2017-Apr-21 00:56N 59°06' E 010°14'0 0.0
2017-Apr-21 00:29N 59°06' E 010°14'0 0.0
2017-Apr-21 00:00N 59°06' E 010°14'0 0.0
2017-Apr-20 23:30N 59°06' E 010°14'0 0.0
2017-Apr-20 23:00N 59°06' E 010°14'0 0.0
2017-Apr-20 22:28N 59°06' E 010°14'0 0.0
2017-Apr-20 21:58N 59°06' E 010°14'0 0.0
2017-Apr-20 21:28N 59°06' E 010°14'0 0.0
2017-Apr-20 20:56N 59°06' E 010°14'0 0.0
2017-Apr-20 20:26N 59°06' E 010°14'0 0.0
2017-Apr-20 19:59N 59°06' E 010°14'1 2.2
2017-Apr-20 19:30N 59°07' E 010°14'0 0.7
2017-Apr-20 19:01N 59°08' E 010°14'611.1
2017-Apr-20 18:30N 59°02' E 010°16'714.1
2017-Apr-20 18:00N 59°00' E 010°29'713.3
2017-Apr-20 17:30N 59°01' E 010°42'815.2
2017-Apr-20 17:01N 59°00' E 010°56'815.7
2017-Apr-20 16:31N 58°56' E 011°08'1 1.9
2017-Apr-20 16:01N 58°56' E 011°10'3 6.8
2017-Apr-20 15:31N 58°57' E 011°04'815.5
2017-Apr-20 15:01N 59°01' E 010°51'1615.7
2017-Apr-20 14:01N 59°01' E 010°21'713.8
2017-Apr-20 13:31N 59°07' E 010°14'1 2.1
2017-Apr-20 13:00N 59°08' E 010°14'0 0.3
2017-Apr-20 12:30N 59°07' E 010°14'612.1
2017-Apr-20 12:00N 59°02' E 010°17'713.9
2017-Apr-20 11:31N 59°00' E 010°30'713.8
2017-Apr-20 11:01N 59°02' E 010°43'714.1
2017-Apr-20 10:31N 59°00' E 010°57'714.9
2017-Apr-20 10:01N 58°56' E 011°08'1 2.1
2017-Apr-20 09:31N 58°56' E 011°10'0 0.2
2017-Apr-20 09:01N 58°56' E 011°10'612.8
2017-Apr-20 08:31N 58°59' E 010°59'714.9
2017-Apr-20 08:01N 59°02' E 010°46'715.0
2017-Apr-20 07:31N 59°01' E 010°31'815.9
2017-Apr-20 07:01N 59°02' E 010°16'611.7
2017-Apr-20 06:30N 59°07' E 010°14'0 0.2
2017-Apr-20 06:01N 59°08' E 010°14'1 2.9
2017-Apr-20 05:30N 59°06' E 010°14'0 0.1
2017-Apr-20 05:00N 59°06' E 010°14'0 0.0
2017-Apr-20 04:30N 59°06' E 010°14'0 0.0
2017-Apr-20 04:00N 59°06' E 010°14'0 0.0
2017-Apr-20 03:31N 59°06' E 010°14'0 0.0
2017-Apr-20 02:58N 59°06' E 010°14'0 0.0
2017-Apr-20 02:28N 59°06' E 010°14'0 0.0
2017-Apr-20 01:59N 59°06' E 010°14'0 0.0
2017-Apr-20 01:29N 59°06' E 010°14'0 0.0
2017-Apr-20 00:59N 59°06' E 010°14'0 0.0
2017-Apr-20 00:30N 59°06' E 010°14'0 0.0
2017-Apr-20 00:00N 59°06' E 010°14'0 0.0
2017-Apr-19 23:30N 59°06' E 010°14'0 0.0
2017-Apr-19 22:55N 59°06' E 010°14'0 0.0
2017-Apr-19 22:28N 59°06' E 010°14'0 0.0
2017-Apr-19 21:58N 59°06' E 010°14'0 0.0
2017-Apr-19 21:29N 59°06' E 010°14'0 0.0
2017-Apr-19 20:59N 59°06' E 010°14'0 0.0
2017-Apr-19 20:29N 59°06' E 010°14'0 0.4
2017-Apr-19 20:01N 59°06' E 010°14'1 2.4
2017-Apr-19 19:31N 59°08' E 010°14'0 0.2
2017-Apr-19 19:00N 59°07' E 010°14'611.9
2017-Apr-19 18:31N 59°02' E 010°16'714.2
2017-Apr-19 18:01N 58°59' E 010°29'612.3
2017-Apr-19 17:30N 59°01' E 010°41'816.5
2017-Apr-19 17:01N 59°00' E 010°56'815.9
2017-Apr-19 16:31N 58°56' E 011°09'1 1.3
2017-Apr-19 16:01N 58°56' E 011°10'3 6.9
2017-Apr-19 15:30N 58°57' E 011°04'815.5
2017-Apr-19 15:00N 59°01' E 010°51'815.7
2017-Apr-19 14:30N 59°01' E 010°36'1313.0
2017-Apr-19 13:30N 59°07' E 010°14'1 1.4
2017-Apr-19 13:00N 59°08' E 010°14'0 0.0
2017-Apr-19 12:31N 59°08' E 010°14'5 9.8
2017-Apr-19 12:00N 59°03' E 010°15'816.1
2017-Apr-19 11:31N 59°01' E 010°30'815.3
2017-Apr-19 11:00N 59°02' E 010°45'815.8
2017-Apr-19 10:31N 58°59' E 010°59'611.8
2017-Apr-19 10:01N 58°56' E 011°08'1 1.7
2017-Apr-19 09:31N 58°56' E 011°10'0 0.4
2017-Apr-19 09:00N 58°56' E 011°10'613.0
2017-Apr-19 08:31N 58°59' E 010°59'714.6
2017-Apr-19 08:01N 59°02' E 010°46'714.4
2017-Apr-19 07:30N 59°01' E 010°32'816.5
2017-Apr-19 07:01N 59°02' E 010°16'611.6
2017-Apr-19 06:31N 59°07' E 010°14'0 0.2
2017-Apr-19 06:01N 59°08' E 010°14'1 2.8
2017-Apr-19 05:30N 59°06' E 010°14'0 0.0
2017-Apr-19 05:00N 59°06' E 010°14'0 0.0
2017-Apr-19 04:27N 59°06' E 010°14'0 0.0
2017-Apr-19 04:00N 59°06' E 010°14'0 0.0
2017-Apr-19 03:28N 59°06' E 010°14'0 0.0
2017-Apr-19 02:58N 59°06' E 010°14'0 0.0
2017-Apr-19 02:28N 59°06' E 010°14'0 0.0
2017-Apr-19 01:59N 59°06' E 010°14'0 0.0
2017-Apr-19 01:29N 59°06' E 010°14'0 0.0
2017-Apr-19 00:59N 59°06' E 010°14'0 0.0
2017-Apr-19 00:30N 59°06' E 010°14'0 0.0
2017-Apr-19 00:00N 59°06' E 010°14'0 0.0
2017-Apr-18 23:30N 59°06' E 010°14'0 0.0
2017-Apr-18 22:58N 59°06' E 010°14'0 0.0
2017-Apr-18 22:28N 59°06' E 010°14'0 0.0
2017-Apr-18 21:59N 59°06' E 010°14'0 0.0
2017-Apr-18 21:23N 59°06' E 010°14'0 0.0
2017-Apr-18 20:59N 59°06' E 010°14'0 0.0
2017-Apr-18 20:31N 59°06' E 010°14'0 0.0
2017-Apr-18 20:01N 59°06' E 010°14'1 2.9
2017-Apr-18 19:31N 59°08' E 010°14'0 0.0
2017-Apr-18 19:00N 59°08' E 010°14'510.8
2017-Apr-18 18:31N 59°02' E 010°15'816.7
2017-Apr-18 18:00N 59°01' E 010°31'917.3
2017-Apr-18 17:31N 59°02' E 010°48'510.5
2017-Apr-18 17:00N 59°00' E 010°58'714.0
2017-Apr-18 16:31N 58°56' E 011°08'1 2.0
2017-Apr-18 16:01N 58°56' E 011°10'4 8.7
2017-Apr-18 15:31N 58°58' E 011°02'816.2
2017-Apr-18 15:00N 59°01' E 010°48'816.2
2017-Apr-18 14:30N 59°00' E 010°33'1212.1
2017-Apr-18 13:30N 59°07' E 010°14'0 0.6
2017-Apr-18 13:00N 59°08' E 010°14'0 0.0
2017-Apr-18 12:30N 59°08' E 010°14'510.1
2017-Apr-18 12:01N 59°03' E 010°15'714.6
2017-Apr-18 11:31N 59°01' E 010°29'815.2
2017-Apr-18 11:01N 59°02' E 010°44'714.7
2017-Apr-18 10:31N 58°60' E 010°57'714.3
2017-Apr-18 10:01N 58°56' E 011°09'1 1.6
2017-Apr-18 09:31N 58°56' E 011°10'0 0.9
2017-Apr-18 09:01N 58°56' E 011°09'714.1
2017-Apr-18 08:31N 58°60' E 010°58'815.5
2017-Apr-18 08:00N 59°02' E 010°43'815.5
2017-Apr-18 07:30N 59°00' E 010°28'714.2
2017-Apr-18 07:00N 59°03' E 010°15'5 9.9
2017-Apr-18 06:30N 59°08' E 010°14'0 0.0
2017-Apr-18 06:01N 59°08' E 010°14'1 2.9
2017-Apr-18 05:31N 59°06' E 010°14'0 0.0
2017-Apr-18 04:58N 59°06' E 010°14'0 0.0
2017-Apr-18 04:26N 59°06' E 010°14'0 0.0
2017-Apr-18 03:59N 59°06' E 010°14'0 0.0
2017-Apr-18 03:29N 59°06' E 010°14'0 0.0
2017-Apr-18 03:00N 59°06' E 010°14'0 0.0
2017-Apr-18 02:30N 59°06' E 010°14'0 0.0
2017-Apr-18 02:00N 59°06' E 010°14'0 0.0
2017-Apr-18 01:28N 59°06' E 010°14'0 0.0
2017-Apr-18 00:58N 59°06' E 010°14'0 0.0
2017-Apr-18 00:28N 59°06' E 010°14'0 0.0
2017-Apr-17 23:59N 59°06' E 010°14'0 0.0
2017-Apr-17 23:29N 59°06' E 010°14'0 0.0
2017-Apr-17 22:59N 59°06' E 010°14'0 0.0
2017-Apr-17 22:30N 59°06' E 010°14'0 0.0
2017-Apr-17 22:00N 59°06' E 010°14'0 0.0
2017-Apr-17 21:30N 59°06' E 010°14'0 0.0
2017-Apr-17 20:58N 59°06' E 010°14'0 0.0
2017-Apr-17 20:28N 59°06' E 010°14'0 0.0
2017-Apr-17 19:58N 59°06' E 010°14'0 0.8
2017-Apr-17 19:30N 59°07' E 010°14'1 2.1
2017-Apr-17 19:00N 59°08' E 010°14'  
Track history (hours):
 
Tides and Currents Weather Stations Pressure Air Temp Water Temp Dewpoint Dewpoint Depression Visibility Wind Speed Wind Dir Waves Ship Positions

DucheSS Of Scandinavia

Operator: DFDS A/S

Last reported at 2017-Apr-27 18:31 UTC. Time now 2017-Apr-27 18:49 UTC.
Position N 59°05' E 010°15'.

Length 134 m; draft 5.4 m.

Type: Passenger vessel. MMSI: 219002929.

Date/timePositionNaut miles runAvg speedWind from/ knotsBaromVisibWave heightAir tempDewpointWater temp
2017-Apr-27 18:31N 59°05' E 010°15'713.2
2017-Apr-27 18:01N 59°01' E 010°25'816.2
2017-Apr-27 17:30N 59°01' E 010°41'815.7
2017-Apr-27 17:01N 59°00' E 010°56'815.9
2017-Apr-27 16:31N 58°56' E 011°09'1 1.7
2017-Apr-27 16:00N 58°56' E 011°10'3 6.5
2017-Apr-27 15:30N 58°57' E 011°04'815.8
2017-Apr-27 15:00N 59°01' E 010°51'1615.8
2017-Apr-27 14:00N 59°01' E 010°20'713.0
2017-Apr-27 13:30N 59°06' E 010°14'1 2.2
2017-Apr-27 13:01N 59°08' E 010°14'0 0.1
2017-Apr-27 12:31N 59°08' E 010°14'611.2
2017-Apr-27 12:00N 59°02' E 010°16'713.9
2017-Apr-27 11:30N 59°01' E 010°29'714.7
2017-Apr-27 11:01N 59°01' E 010°43'714.7
2017-Apr-27 10:31N 59°00' E 010°57'714.9
2017-Apr-27 10:01N 58°56' E 011°09'1 1.3
2017-Apr-27 09:30N 58°56' E 011°10'0 0.0
2017-Apr-27 09:00N 58°56' E 011°10'511.0
2017-Apr-27 08:31N 58°59' E 011°01'815.9
2017-Apr-27 08:00N 59°02' E 010°47'816.1
2017-Apr-27 07:30N 59°00' E 010°31'815.9
2017-Apr-27 07:00N 59°02' E 010°16'611.4
2017-Apr-27 06:30N 59°07' E 010°14'0 0.2
2017-Apr-27 06:01N 59°08' E 010°14'1 2.9
2017-Apr-27 05:31N 59°06' E 010°14'0 0.0
2017-Apr-27 04:55N 59°06' E 010°14'0 0.0
2017-Apr-27 04:29N 59°06' E 010°14'0 0.0
2017-Apr-27 03:59N 59°06' E 010°14'0 0.0
2017-Apr-27 03:29N 59°06' E 010°14'0 0.0
2017-Apr-27 03:00N 59°06' E 010°14'0 0.0
2017-Apr-27 02:30N 59°06' E 010°14'0 0.0
2017-Apr-27 02:00N 59°06' E 010°14'0 0.0
2017-Apr-27 01:28N 59°06' E 010°14'0 0.0
2017-Apr-27 00:58N 59°06' E 010°14'0 0.0
2017-Apr-27 00:28N 59°06' E 010°14'0 0.0
2017-Apr-26 23:59N 59°06' E 010°14'0 0.0
2017-Apr-26 23:29N 59°06' E 010°14'0 0.0
2017-Apr-26 22:59N 59°06' E 010°14'0 0.0
2017-Apr-26 22:30N 59°06' E 010°14'0 0.0
2017-Apr-26 22:00N 59°06' E 010°14'0 0.0
2017-Apr-26 21:30N 59°06' E 010°14'0 0.0
2017-Apr-26 20:58N 59°06' E 010°14'0 0.0
2017-Apr-26 20:25N 59°06' E 010°14'0 0.0
2017-Apr-26 19:58N 59°06' E 010°14'1 2.7
2017-Apr-26 19:30N 59°07' E 010°14'0 0.3
2017-Apr-26 19:01N 59°08' E 010°14'611.6
2017-Apr-26 18:30N 59°02' E 010°16'816.2
2017-Apr-26 18:01N 59°01' E 010°31'816.6
2017-Apr-26 17:31N 59°02' E 010°47'816.0
2017-Apr-26 17:01N 58°59' E 011°02'510.6
2017-Apr-26 16:31N 58°56' E 011°10'0 0.0
2017-Apr-26 16:01N 58°56' E 011°10'2 4.5
2017-Apr-26 15:30N 58°56' E 011°06'816.2
2017-Apr-26 15:01N 59°01' E 010°53'816.1
2017-Apr-26 14:31N 59°01' E 010°37'1313.2
2017-Apr-26 13:31N 59°06' E 010°14'1 2.6
2017-Apr-26 13:00N 59°08' E 010°14'0 0.1
2017-Apr-26 12:30N 59°08' E 010°14'510.8
2017-Apr-26 12:01N 59°02' E 010°16'713.6
2017-Apr-26 11:30N 59°00' E 010°28'714.6
2017-Apr-26 11:00N 59°01' E 010°42'714.6
2017-Apr-26 10:31N 59°00' E 010°56'814.9
2017-Apr-26 10:00N 58°56' E 011°08'1 2.1
2017-Apr-26 09:31N 58°56' E 011°10'0 0.0
2017-Apr-26 09:01N 58°56' E 011°10'511.0
2017-Apr-26 08:31N 58°59' E 011°01'815.8
2017-Apr-26 08:01N 59°02' E 010°47'815.8
2017-Apr-26 07:31N 59°01' E 010°32'815.8
2017-Apr-26 07:01N 59°02' E 010°16'612.1
2017-Apr-26 06:31N 59°07' E 010°14'0 0.3
2017-Apr-26 06:01N 59°08' E 010°14'1 1.2
2017-Apr-26 05:30N 59°07' E 010°14'1 1.6
2017-Apr-26 04:59N 59°06' E 010°14'0 0.0
2017-Apr-26 04:29N 59°06' E 010°14'0 0.0
2017-Apr-26 04:00N 59°06' E 010°14'0 0.0
2017-Apr-26 03:30N 59°06' E 010°14'0 0.0
2017-Apr-26 03:00N 59°06' E 010°14'0 0.0
2017-Apr-26 02:28N 59°06' E 010°14'0 0.0
2017-Apr-26 01:58N 59°06' E 010°14'0 0.0
2017-Apr-26 01:28N 59°06' E 010°14'0 0.0
2017-Apr-26 00:56N 59°06' E 010°14'0 0.0
2017-Apr-26 00:29N 59°06' E 010°14'0 0.0
2017-Apr-25 23:56N 59°06' E 010°14'0 0.0
2017-Apr-25 23:30N 59°06' E 010°14'0 0.0
2017-Apr-25 23:00N 59°06' E 010°14'0 0.0
2017-Apr-25 22:30N 59°06' E 010°14'0 0.0
2017-Apr-25 21:58N 59°06' E 010°14'0 0.0
2017-Apr-25 21:28N 59°06' E 010°14'0 0.0
2017-Apr-25 20:58N 59°06' E 010°14'0 0.0
2017-Apr-25 20:30N 59°06' E 010°14'0 0.0
2017-Apr-25 20:01N 59°06' E 010°14'1 1.3
2017-Apr-25 19:30N 59°07' E 010°14'1 1.6
2017-Apr-25 19:00N 59°08' E 010°14'3 5.6
2017-Apr-25 18:31N 59°05' E 010°15'713.6
2017-Apr-25 18:01N 59°01' E 010°25'816.5
2017-Apr-25 17:31N 59°01' E 010°41'815.8
2017-Apr-25 17:01N 59°00' E 010°57'815.4
2017-Apr-25 16:31N 58°56' E 011°09'1 1.5
2017-Apr-25 16:00N 58°56' E 011°10'4 7.2
2017-Apr-25 15:31N 58°57' E 011°03'815.9
2017-Apr-25 15:01N 59°01' E 010°50'1615.6
2017-Apr-25 14:01N 59°01' E 010°20'713.1
2017-Apr-25 13:30N 59°07' E 010°14'1 1.7
2017-Apr-25 13:00N 59°08' E 010°14'0 0.1
2017-Apr-25 12:30N 59°08' E 010°14'510.4
2017-Apr-25 12:01N 59°02' E 010°15'713.2
2017-Apr-25 11:30N 59°01' E 010°28'815.7
2017-Apr-25 11:01N 59°01' E 010°43'815.5
2017-Apr-25 10:31N 58°60' E 010°58'714.4
2017-Apr-25 10:00N 58°56' E 011°09'1 1.0
2017-Apr-25 09:30N 58°56' E 011°10'0 0.0
2017-Apr-25 09:01N 58°56' E 011°10'611.5
2017-Apr-25 08:31N 58°59' E 011°01'816.1
2017-Apr-25 08:00N 59°02' E 010°46'815.5
2017-Apr-25 07:31N 59°00' E 010°31'815.2
2017-Apr-25 07:01N 59°02' E 010°16'611.9
2017-Apr-25 06:30N 59°07' E 010°14'0 0.4
2017-Apr-25 06:01N 59°08' E 010°14'1 2.8
2017-Apr-25 05:31N 59°06' E 010°14'0 0.0
2017-Apr-25 04:58N 59°06' E 010°14'0 0.0
2017-Apr-25 04:28N 59°06' E 010°14'0 0.0
2017-Apr-25 03:52N 59°06' E 010°14'0 0.0
2017-Apr-25 03:29N 59°06' E 010°14'0 0.0
2017-Apr-25 02:59N 59°06' E 010°14'0 0.0
2017-Apr-25 02:29N 59°06' E 010°14'0 0.0
2017-Apr-25 02:00N 59°06' E 010°14'0 0.0
2017-Apr-25 01:30N 59°06' E 010°14'0 0.0
2017-Apr-25 01:00N 59°06' E 010°14'0 0.0
2017-Apr-25 00:28N 59°06' E 010°14'0 0.0
2017-Apr-24 23:58N 59°06' E 010°14'0 0.0
2017-Apr-24 23:28N 59°06' E 010°14'0 0.0
2017-Apr-24 22:59N 59°06' E 010°14'0 0.0
2017-Apr-24 22:29N 59°06' E 010°14'0 0.0
2017-Apr-24 21:59N 59°06' E 010°14'0 0.0
2017-Apr-24 21:30N 59°06' E 010°14'0 0.0
2017-Apr-24 21:00N 59°06' E 010°14'0 0.0
2017-Apr-24 20:30N 59°06' E 010°14'0 0.0
2017-Apr-24 20:01N 59°06' E 010°14'0 0.0
2017-Apr-24 19:31N 59°06' E 010°14'1 2.9
2017-Apr-24 19:01N 59°08' E 010°14'3 6.7
2017-Apr-24 18:31N 59°04' E 010°15'713.6
2017-Apr-24 18:01N 59°01' E 010°26'815.8
2017-Apr-24 17:31N 59°01' E 010°42'815.8
2017-Apr-24 17:01N 59°00' E 010°57'714.9
2017-Apr-24 16:31N 58°56' E 011°09'1 1.7
2017-Apr-24 16:01N 58°56' E 011°10'3 7.0
2017-Apr-24 15:31N 58°57' E 011°04'816.4
2017-Apr-24 15:01N 59°01' E 010°50'815.6
2017-Apr-24 14:31N 59°00' E 010°35'1312.6
2017-Apr-24 13:30N 59°07' E 010°14'1 1.7
2017-Apr-24 13:00N 59°08' E 010°14'0 0.3
2017-Apr-24 12:30N 59°07' E 010°14'611.3
2017-Apr-24 12:01N 59°02' E 010°16'714.1
2017-Apr-24 11:31N 59°00' E 010°29'714.6
2017-Apr-24 11:01N 59°01' E 010°43'714.3
2017-Apr-24 10:31N 59°00' E 010°57'714.9
2017-Apr-24 10:01N 58°56' E 011°09'1 1.5
2017-Apr-24 09:30N 58°56' E 011°10'0 0.0
2017-Apr-24 09:01N 58°56' E 011°10'5 9.8
2017-Apr-24 08:31N 58°58' E 011°02'815.6
2017-Apr-24 08:01N 59°02' E 010°48'816.3
2017-Apr-24 07:31N 59°00' E 010°33'816.7
2017-Apr-24 07:01N 59°02' E 010°16'611.9
2017-Apr-24 06:30N 59°07' E 010°14'0 0.3
2017-Apr-24 06:01N 59°08' E 010°14'1 2.9
2017-Apr-24 05:30N 59°06' E 010°14'0 0.0
2017-Apr-24 04:58N 59°06' E 010°14'0 0.0
2017-Apr-24 04:28N 59°06' E 010°14'0 0.0
2017-Apr-24 03:59N 59°06' E 010°14'0 0.0
2017-Apr-24 03:29N 59°06' E 010°14'0 0.0
2017-Apr-24 02:59N 59°06' E 010°14'0 0.0
2017-Apr-24 02:30N 59°06' E 010°14'0 0.0
2017-Apr-24 02:00N 59°06' E 010°14'0 0.0
2017-Apr-24 01:30N 59°06' E 010°14'0 0.0
2017-Apr-24 00:58N 59°06' E 010°14'0 0.0
2017-Apr-24 00:28N 59°06' E 010°14'0 0.0
2017-Apr-23 23:58N 59°06' E 010°14'0 0.0
2017-Apr-23 23:29N 59°06' E 010°14'0 0.0
2017-Apr-23 22:59N 59°06' E 010°14'0 0.0
2017-Apr-23 22:29N 59°06' E 010°14'0 0.0
2017-Apr-23 22:00N 59°06' E 010°14'0 0.0
2017-Apr-23 21:30N 59°06' E 010°14'0 0.0
2017-Apr-23 21:00N 59°06' E 010°14'0 0.0
2017-Apr-23 20:31N 59°06' E 010°14'0 0.0
2017-Apr-23 20:01N 59°06' E 010°14'0 0.5
2017-Apr-23 19:30N 59°06' E 010°14'1 2.4
2017-Apr-23 19:01N 59°08' E 010°14'4 8.7
2017-Apr-23 18:30N 59°03' E 010°15'714.6
2017-Apr-23 18:01N 59°01' E 010°28'816.1
2017-Apr-23 17:31N 59°02' E 010°44'815.7
2017-Apr-23 17:01N 58°60' E 010°59'713.8
2017-Apr-23 16:30N 58°56' E 011°10'0 0.3
2017-Apr-23 16:01N 58°56' E 011°10'3 6.8
2017-Apr-23 15:30N 58°57' E 011°04'815.6
2017-Apr-23 15:00N 59°01' E 010°51'1616.0
2017-Apr-23 14:00N 59°01' E 010°20'612.6
2017-Apr-23 13:31N 59°06' E 010°14'1 2.2
2017-Apr-23 13:01N 59°08' E 010°14'0 0.0
2017-Apr-23 12:31N 59°08' E 010°14'5 9.2
2017-Apr-23 12:01N 59°03' E 010°15'714.8
2017-Apr-23 11:31N 59°01' E 010°29'816.7
2017-Apr-23 11:01N 59°02' E 010°45'815.8
2017-Apr-23 10:31N 58°59' E 010°60'612.7
2017-Apr-23 10:01N 58°56' E 011°10'0 0.0
2017-Apr-23 09:31N 58°56' E 011°10'0 0.0
2017-Apr-23 09:01N 58°56' E 011°10'510.0
2017-Apr-23 08:30N 58°58' E 011°02'816.4
2017-Apr-23 08:00N 59°02' E 010°47'816.1
2017-Apr-23 07:30N 59°00' E 010°32'815.8
2017-Apr-23 07:01N 59°02' E 010°16'611.9
2017-Apr-23 06:30N 59°07' E 010°14'0 0.3
2017-Apr-23 06:01N 59°08' E 010°14'1 2.9
2017-Apr-23 05:30N 59°06' E 010°14'0 0.0
2017-Apr-23 04:59N 59°06' E 010°14'0 0.0
2017-Apr-23 04:30N 59°06' E 010°14'0 0.0
2017-Apr-23 04:00N 59°06' E 010°14'0 0.0
2017-Apr-23 03:30N 59°06' E 010°14'0 0.0
2017-Apr-23 02:58N 59°06' E 010°14'0 0.0
2017-Apr-23 02:25N 59°06' E 010°14'0 0.0
2017-Apr-23 01:58N 59°06' E 010°14'0 0.0
2017-Apr-23 01:29N 59°06' E 010°14'0 0.0
2017-Apr-23 00:59N 59°06' E 010°14'0 0.0
2017-Apr-23 00:29N 59°06' E 010°14'0 0.0
2017-Apr-23 00:00N 59°06' E 010°14'0 0.0
2017-Apr-22 23:30N 59°06' E 010°14'0 0.0
2017-Apr-22 23:00N 59°06' E 010°14'0 0.0
2017-Apr-22 22:25N 59°06' E 010°14'0 0.0
2017-Apr-22 21:58N 59°06' E 010°14'0 0.0
2017-Apr-22 21:25N 59°06' E 010°14'0 0.0
2017-Apr-22 20:59N 59°06' E 010°14'0 0.0
2017-Apr-22 20:29N 59°06' E 010°14'0 0.0
2017-Apr-22 19:59N 59°06' E 010°14'0 0.0
2017-Apr-22 19:30N 59°06' E 010°14'1 2.9
2017-Apr-22 19:01N 59°08' E 010°14'3 5.5
2017-Apr-22 18:31N 59°05' E 010°15'713.0
2017-Apr-22 18:01N 59°01' E 010°25'816.3
2017-Apr-22 17:31N 59°01' E 010°41'815.8
2017-Apr-22 17:01N 59°00' E 010°56'815.3
2017-Apr-22 16:30N 58°56' E 011°08'1 2.4
2017-Apr-22 16:01N 58°56' E 011°10'4 7.2
2017-Apr-22 15:30N 58°57' E 011°04'816.3
2017-Apr-22 15:01N 59°01' E 010°50'816.1
2017-Apr-22 14:30N 59°01' E 010°34'1212.3
2017-Apr-22 13:30N 59°07' E 010°14'1 1.2
2017-Apr-22 13:01N 59°08' E 010°14'0 0.0
2017-Apr-22 12:31N 59°08' E 010°14'4 8.1
2017-Apr-22 12:01N 59°04' E 010°15'612.6
2017-Apr-22 11:31N 59°01' E 010°26'816.3
2017-Apr-22 11:01N 59°02' E 010°42'815.2
2017-Apr-22 10:31N 59°00' E 010°56'815.1
2017-Apr-22 10:00N 58°56' E 011°08'1 2.3
2017-Apr-22 09:30N 58°56' E 011°10'0 0.1
2017-Apr-22 09:00N 58°56' E 011°10'713.9
2017-Apr-22 08:30N 58°60' E 010°59'815.2
2017-Apr-22 08:00N 59°01' E 010°44'815.5
2017-Apr-22 07:30N 59°00' E 010°29'815.1
2017-Apr-22 07:00N 59°03' E 010°15'510.1
2017-Apr-22 06:30N 59°08' E 010°14'0 0.0
2017-Apr-22 06:01N 59°08' E 010°14'1 2.9
2017-Apr-22 05:31N 59°06' E 010°14'0 0.0
2017-Apr-22 04:58N 59°06' E 010°14'0 0.0
2017-Apr-22 04:28N 59°06' E 010°14'0 0.0
2017-Apr-22 03:59N 59°06' E 010°14'0 0.0
2017-Apr-22 03:26N 59°06' E 010°14'0 0.0
2017-Apr-22 02:59N 59°06' E 010°14'0 0.0
2017-Apr-22 02:30N 59°06' E 010°14'0 0.0
2017-Apr-22 02:00N 59°06' E 010°14'0 0.0
2017-Apr-22 01:30N 59°06' E 010°14'0 0.0
2017-Apr-22 00:55N 59°06' E 010°14'0 0.0
2017-Apr-22 00:28N 59°06' E 010°14'0 0.0
2017-Apr-21 23:55N 59°06' E 010°14'0 0.0
2017-Apr-21 23:29N 59°06' E 010°14'0 0.0
2017-Apr-21 22:59N 59°06' E 010°14'0 0.0
2017-Apr-21 22:29N 59°06' E 010°14'0 0.0
2017-Apr-21 22:00N 59°06' E 010°14'0 0.0
2017-Apr-21 21:30N 59°06' E 010°14'0 0.0
2017-Apr-21 21:00N 59°06' E 010°14'0 0.0
2017-Apr-21 20:31N 59°06' E 010°14'0 0.0
2017-Apr-21 20:00N 59°06' E 010°14'1 1.3
2017-Apr-21 19:30N 59°07' E 010°14'1 1.6
2017-Apr-21 19:01N 59°08' E 010°14'3 6.7
2017-Apr-21 18:31N 59°04' E 010°15'713.2
2017-Apr-21 18:00N 59°01' E 010°26'815.6
2017-Apr-21 17:31N 59°01' E 010°41'816.4
2017-Apr-21 17:01N 59°00' E 010°57'815.4
2017-Apr-21 16:31N 58°56' E 011°09'1 1.3
2017-Apr-21 16:00N 58°56' E 011°10'4 7.7
2017-Apr-21 15:31N 58°57' E 011°03'714.2
2017-Apr-21 15:01N 59°01' E 010°51'714.4
2017-Apr-21 14:31N 59°01' E 010°37'1313.0
2017-Apr-21 13:31N 59°06' E 010°14'2 3.3
2017-Apr-21 13:01N 59°08' E 010°14'0 0.0
2017-Apr-21 12:31N 59°08' E 010°14'4 9.0
2017-Apr-21 12:01N 59°03' E 010°15'713.0
2017-Apr-21 11:31N 59°00' E 010°27'815.3
2017-Apr-21 11:01N 59°02' E 010°41'815.1
2017-Apr-21 10:31N 59°00' E 010°55'815.5
2017-Apr-21 10:01N 58°56' E 011°08'1 2.4
2017-Apr-21 09:30N 58°56' E 011°10'0 0.0
2017-Apr-21 09:01N 58°56' E 011°10'510.8
2017-Apr-21 08:31N 58°59' E 011°01'815.8
2017-Apr-21 08:00N 59°02' E 010°47'816.5
2017-Apr-21 07:31N 58°60' E 010°31'816.3
2017-Apr-21 07:01N 59°02' E 010°16'611.6
2017-Apr-21 06:31N 59°08' E 010°14'0 0.2
2017-Apr-21 06:00N 59°08' E 010°14'1 2.9
2017-Apr-21 05:30N 59°06' E 010°14'0 0.0
2017-Apr-21 04:59N 59°06' E 010°14'0 0.0
2017-Apr-21 04:30N 59°06' E 010°14'0 0.0
2017-Apr-21 04:00N 59°06' E 010°14'0 0.0
2017-Apr-21 03:30N 59°06' E 010°14'0 0.0
2017-Apr-21 02:58N 59°06' E 010°14'0 0.0
2017-Apr-21 02:28N 59°06' E 010°14'0 0.0
2017-Apr-21 01:58N 59°06' E 010°14'0 0.0
2017-Apr-21 01:29N 59°06' E 010°14'0 0.0
2017-Apr-21 00:56N 59°06' E 010°14'0 0.0
2017-Apr-21 00:29N 59°06' E 010°14'0 0.0
2017-Apr-21 00:00N 59°06' E 010°14'0 0.0
2017-Apr-20 23:30N 59°06' E 010°14'0 0.0
2017-Apr-20 23:00N 59°06' E 010°14'0 0.0
2017-Apr-20 22:28N 59°06' E 010°14'0 0.0
2017-Apr-20 21:58N 59°06' E 010°14'0 0.0
2017-Apr-20 21:28N 59°06' E 010°14'0 0.0
2017-Apr-20 20:56N 59°06' E 010°14'0 0.0
2017-Apr-20 20:26N 59°06' E 010°14'0 0.0
2017-Apr-20 19:59N 59°06' E 010°14'1 2.2
2017-Apr-20 19:30N 59°07' E 010°14'0 0.7
2017-Apr-20 19:01N 59°08' E 010°14'611.1
2017-Apr-20 18:30N 59°02' E 010°16'714.1
2017-Apr-20 18:00N 59°00' E 010°29'713.3
2017-Apr-20 17:30N 59°01' E 010°42'815.2
2017-Apr-20 17:01N 59°00' E 010°56'815.7
2017-Apr-20 16:31N 58°56' E 011°08'1 1.9
2017-Apr-20 16:01N 58°56' E 011°10'3 6.8
2017-Apr-20 15:31N 58°57' E 011°04'815.5
2017-Apr-20 15:01N 59°01' E 010°51'1615.7
2017-Apr-20 14:01N 59°01' E 010°21'713.8
2017-Apr-20 13:31N 59°07' E 010°14'1 2.1
2017-Apr-20 13:00N 59°08' E 010°14'0 0.3
2017-Apr-20 12:30N 59°07' E 010°14'612.1
2017-Apr-20 12:00N 59°02' E 010°17'713.9
2017-Apr-20 11:31N 59°00' E 010°30'713.8
2017-Apr-20 11:01N 59°02' E 010°43'714.1
2017-Apr-20 10:31N 59°00' E 010°57'714.9
2017-Apr-20 10:01N 58°56' E 011°08'1 2.1
2017-Apr-20 09:31N 58°56' E 011°10'0 0.2
2017-Apr-20 09:01N 58°56' E 011°10'612.8
2017-Apr-20 08:31N 58°59' E 010°59'714.9
2017-Apr-20 08:01N 59°02' E 010°46'715.0
2017-Apr-20 07:31N 59°01' E 010°31'815.9
2017-Apr-20 07:01N 59°02' E 010°16'611.7
2017-Apr-20 06:30N 59°07' E 010°14'0 0.2
2017-Apr-20 06:01N 59°08' E 010°14'1 2.9
2017-Apr-20 05:30N 59°06' E 010°14'0 0.1
2017-Apr-20 05:00N 59°06' E 010°14'0 0.0
2017-Apr-20 04:30N 59°06' E 010°14'0 0.0
2017-Apr-20 04:00N 59°06' E 010°14'0 0.0
2017-Apr-20 03:31N 59°06' E 010°14'0 0.0
2017-Apr-20 02:58N 59°06' E 010°14'0 0.0
2017-Apr-20 02:28N 59°06' E 010°14'0 0.0
2017-Apr-20 01:59N 59°06' E 010°14'0 0.0
2017-Apr-20 01:29N 59°06' E 010°14'0 0.0
2017-Apr-20 00:59N 59°06' E 010°14'0 0.0
2017-Apr-20 00:30N 59°06' E 010°14'0 0.0
2017-Apr-20 00:00N 59°06' E 010°14'0 0.0
2017-Apr-19 23:30N 59°06' E 010°14'0 0.0
2017-Apr-19 22:55N 59°06' E 010°14'0 0.0
2017-Apr-19 22:28N 59°06' E 010°14'0 0.0
2017-Apr-19 21:58N 59°06' E 010°14'0 0.0
2017-Apr-19 21:29N 59°06' E 010°14'0 0.0
2017-Apr-19 20:59N 59°06' E 010°14'0 0.0
2017-Apr-19 20:29N 59°06' E 010°14'0 0.4
2017-Apr-19 20:01N 59°06' E 010°14'1 2.4
2017-Apr-19 19:31N 59°08' E 010°14'0 0.2
2017-Apr-19 19:00N 59°07' E 010°14'611.9
2017-Apr-19 18:31N 59°02' E 010°16'714.2
2017-Apr-19 18:01N 58°59' E 010°29'612.3
2017-Apr-19 17:30N 59°01' E 010°41'816.5
2017-Apr-19 17:01N 59°00' E 010°56'815.9
2017-Apr-19 16:31N 58°56' E 011°09'1 1.3
2017-Apr-19 16:01N 58°56' E 011°10'3 6.9
2017-Apr-19 15:30N 58°57' E 011°04'815.5
2017-Apr-19 15:00N 59°01' E 010°51'815.7
2017-Apr-19 14:30N 59°01' E 010°36'1313.0
2017-Apr-19 13:30N 59°07' E 010°14'1 1.4
2017-Apr-19 13:00N 59°08' E 010°14'0 0.0
2017-Apr-19 12:31N 59°08' E 010°14'5 9.8
2017-Apr-19 12:00N 59°03' E 010°15'816.1
2017-Apr-19 11:31N 59°01' E 010°30'815.3
2017-Apr-19 11:00N 59°02' E 010°45'815.8
2017-Apr-19 10:31N 58°59' E 010°59'611.8
2017-Apr-19 10:01N 58°56' E 011°08'1 1.7
2017-Apr-19 09:31N 58°56' E 011°10'0 0.4
2017-Apr-19 09:00N 58°56' E 011°10'613.0
2017-Apr-19 08:31N 58°59' E 010°59'714.6
2017-Apr-19 08:01N 59°02' E 010°46'714.4
2017-Apr-19 07:30N 59°01' E 010°32'816.5
2017-Apr-19 07:01N 59°02' E 010°16'611.6
2017-Apr-19 06:31N 59°07' E 010°14'0 0.2
2017-Apr-19 06:01N 59°08' E 010°14'1 2.8
2017-Apr-19 05:30N 59°06' E 010°14'0 0.0
2017-Apr-19 05:00N 59°06' E 010°14'0 0.0
2017-Apr-19 04:27N 59°06' E 010°14'0 0.0
2017-Apr-19 04:00N 59°06' E 010°14'0 0.0
2017-Apr-19 03:28N 59°06' E 010°14'0 0.0
2017-Apr-19 02:58N 59°06' E 010°14'0 0.0
2017-Apr-19 02:28N 59°06' E 010°14'0 0.0
2017-Apr-19 01:59N 59°06' E 010°14'0 0.0
2017-Apr-19 01:29N 59°06' E 010°14'0 0.0
2017-Apr-19 00:59N 59°06' E 010°14'0 0.0
2017-Apr-19 00:30N 59°06' E 010°14'0 0.0
2017-Apr-19 00:00N 59°06' E 010°14'0 0.0
2017-Apr-18 23:30N 59°06' E 010°14'0 0.0
2017-Apr-18 22:58N 59°06' E 010°14'0 0.0
2017-Apr-18 22:28N 59°06' E 010°14'0 0.0
2017-Apr-18 21:59N 59°06' E 010°14'0 0.0
2017-Apr-18 21:23N 59°06' E 010°14'0 0.0
2017-Apr-18 20:59N 59°06' E 010°14'0 0.0
2017-Apr-18 20:31N 59°06' E 010°14'0 0.0
2017-Apr-18 20:01N 59°06' E 010°14'1 2.9
2017-Apr-18 19:31N 59°08' E 010°14'0 0.0
2017-Apr-18 19:00N 59°08' E 010°14'510.8
2017-Apr-18 18:31N 59°02' E 010°15'816.7
2017-Apr-18 18:00N 59°01' E 010°31'917.3
2017-Apr-18 17:31N 59°02' E 010°48'510.5
2017-Apr-18 17:00N 59°00' E 010°58'714.0
2017-Apr-18 16:31N 58°56' E 011°08'1 2.0
2017-Apr-18 16:01N 58°56' E 011°10'4 8.7
2017-Apr-18 15:31N 58°58' E 011°02'816.2
2017-Apr-18 15:00N 59°01' E 010°48'816.2
2017-Apr-18 14:30N 59°00' E 010°33'1212.1
2017-Apr-18 13:30N 59°07' E 010°14'0 0.6
2017-Apr-18 13:00N 59°08' E 010°14'0 0.0
2017-Apr-18 12:30N 59°08' E 010°14'510.1
2017-Apr-18 12:01N 59°03' E 010°15'714.6
2017-Apr-18 11:31N 59°01' E 010°29'815.2
2017-Apr-18 11:01N 59°02' E 010°44'714.7
2017-Apr-18 10:31N 58°60' E 010°57'714.3
2017-Apr-18 10:01N 58°56' E 011°09'1 1.6
2017-Apr-18 09:31N 58°56' E 011°10'0 0.9
2017-Apr-18 09:01N 58°56' E 011°09'714.1
2017-Apr-18 08:31N 58°60' E 010°58'815.5
2017-Apr-18 08:00N 59°02' E 010°43'815.5
2017-Apr-18 07:30N 59°00' E 010°28'714.2
2017-Apr-18 07:00N 59°03' E 010°15'5 9.9
2017-Apr-18 06:30N 59°08' E 010°14'0 0.0
2017-Apr-18 06:01N 59°08' E 010°14'1 2.9
2017-Apr-18 05:31N 59°06' E 010°14'0 0.0
2017-Apr-18 04:58N 59°06' E 010°14'0 0.0
2017-Apr-18 04:26N 59°06' E 010°14'0 0.0
2017-Apr-18 03:59N 59°06' E 010°14'0 0.0
2017-Apr-18 03:29N 59°06' E 010°14'0 0.0
2017-Apr-18 03:00N 59°06' E 010°14'0 0.0
2017-Apr-18 02:30N 59°06' E 010°14'0 0.0
2017-Apr-18 02:00N 59°06' E 010°14'0 0.0
2017-Apr-18 01:28N 59°06' E 010°14'0 0.0
2017-Apr-18 00:58N 59°06' E 010°14'0 0.0
2017-Apr-18 00:28N 59°06' E 010°14'0 0.0
2017-Apr-17 23:59N 59°06' E 010°14'0 0.0
2017-Apr-17 23:29N 59°06' E 010°14'0 0.0
2017-Apr-17 22:59N 59°06' E 010°14'0 0.0
2017-Apr-17 22:30N 59°06' E 010°14'0 0.0
2017-Apr-17 22:00N 59°06' E 010°14'0 0.0
2017-Apr-17 21:30N 59°06' E 010°14'0 0.0
2017-Apr-17 20:58N 59°06' E 010°14'0 0.0
2017-Apr-17 20:28N 59°06' E 010°14'0 0.0
2017-Apr-17 19:58N 59°06' E 010°14'0 0.8
2017-Apr-17 19:30N 59°07' E 010°14'1 2.1
2017-Apr-17 19:00N 59°08' E 010°14'  

Dump ship's entire track history